sensor_id;sensor_type;location;lat;lon;timestamp;P1;durP1;ratioP1;P2;durP2;ratioP2
7166;SDS011;3625;51.762;14.320;2023-09-12T00:00:05;13.57;;;12.18;;
7166;SDS011;3625;51.762;14.320;2023-09-12T00:02:38;12.57;;;11.27;;
7166;SDS011;3625;51.762;14.320;2023-09-12T00:05:09;11.98;;;10.73;;
7166;SDS011;3625;51.762;14.320;2023-09-12T00:07:39;12.18;;;10.93;;
7166;SDS011;3625;51.762;14.320;2023-09-12T00:10:09;12.68;;;11.07;;
7166;SDS011;3625;51.762;14.320;2023-09-12T00:12:38;12.48;;;11.18;;
7166;SDS011;3625;51.762;14.320;2023-09-12T00:15:07;12.57;;;11.00;;
7166;SDS011;3625;51.762;14.320;2023-09-12T00:17:36;14.15;;;11.07;;
7166;SDS011;3625;51.762;14.320;2023-09-12T00:20:05;12.25;;;10.95;;
7166;SDS011;3625;51.762;14.320;2023-09-12T00:22:35;12.18;;;10.95;;
7166;SDS011;3625;51.762;14.320;2023-09-12T00:25:04;11.52;;;10.32;;
7166;SDS011;3625;51.762;14.320;2023-09-12T00:27:36;11.80;;;10.60;;
7166;SDS011;3625;51.762;14.320;2023-09-12T00:30:05;14.02;;;10.93;;
7166;SDS011;3625;51.762;14.320;2023-09-12T00:32:34;11.48;;;10.38;;
7166;SDS011;3625;51.762;14.320;2023-09-12T00:35:03;12.52;;;10.63;;
7166;SDS011;3625;51.762;14.320;2023-09-12T00:37:33;12.50;;;11.25;;
7166;SDS011;3625;51.762;14.320;2023-09-12T00:40:02;12.50;;;11.38;;
7166;SDS011;3625;51.762;14.320;2023-09-12T00:42:31;13.35;;;11.43;;
7166;SDS011;3625;51.762;14.320;2023-09-12T00:45:01;13.98;;;11.48;;
7166;SDS011;3625;51.762;14.320;2023-09-12T00:47:30;11.95;;;10.70;;
7166;SDS011;3625;51.762;14.320;2023-09-12T00:49:59;12.70;;;10.68;;
7166;SDS011;3625;51.762;14.320;2023-09-12T00:52:30;13.27;;;10.80;;
7166;SDS011;3625;51.762;14.320;2023-09-12T00:55:04;11.98;;;10.80;;
7166;SDS011;3625;51.762;14.320;2023-09-12T00:57:33;12.27;;;11.10;;
7166;SDS011;3625;51.762;14.320;2023-09-12T01:00:06;12.02;;;10.82;;
7166;SDS011;3625;51.762;14.320;2023-09-12T01:02:39;11.30;;;10.20;;
7166;SDS011;3625;51.762;14.320;2023-09-12T01:05:11;11.57;;;10.48;;
7166;SDS011;3625;51.762;14.320;2023-09-12T01:07:42;11.27;;;10.10;;
7166;SDS011;3625;51.762;14.320;2023-09-12T01:10:12;12.45;;;11.35;;
7166;SDS011;3625;51.762;14.320;2023-09-12T01:12:41;12.43;;;11.02;;
7166;SDS011;3625;51.762;14.320;2023-09-12T01:15:11;12.60;;;11.40;;
7166;SDS011;3625;51.762;14.320;2023-09-12T01:17:41;12.23;;;11.02;;
7166;SDS011;3625;51.762;14.320;2023-09-12T01:20:12;12.30;;;11.10;;
7166;SDS011;3625;51.762;14.320;2023-09-12T01:23:00;12.70;;;11.40;;
7166;SDS011;3625;51.762;14.320;2023-09-12T01:26:17;13.27;;;11.95;;
7166;SDS011;3625;51.762;14.320;2023-09-12T01:29:04;13.32;;;12.05;;
7166;SDS011;3625;51.762;14.320;2023-09-12T01:31:36;12.60;;;11.45;;
7166;SDS011;3625;51.762;14.320;2023-09-12T01:34:10;12.85;;;11.55;;
7166;SDS011;3625;51.762;14.320;2023-09-12T01:36:43;13.82;;;12.45;;
7166;SDS011;3625;51.762;14.320;2023-09-12T01:39:11;13.32;;;12.02;;
7166;SDS011;3625;51.762;14.320;2023-09-12T01:41:40;13.15;;;11.88;;
7166;SDS011;3625;51.762;14.320;2023-09-12T01:44:16;14.80;;;11.77;;
7166;SDS011;3625;51.762;14.320;2023-09-12T01:46:49;12.70;;;11.50;;
7166;SDS011;3625;51.762;14.320;2023-09-12T01:49:21;13.63;;;12.38;;
7166;SDS011;3625;51.762;14.320;2023-09-12T01:51:53;13.88;;;12.55;;
7166;SDS011;3625;51.762;14.320;2023-09-12T01:54:24;13.65;;;12.07;;
7166;SDS011;3625;51.762;14.320;2023-09-12T01:56:55;14.48;;;13.07;;
7166;SDS011;3625;51.762;14.320;2023-09-12T01:59:29;13.48;;;12.23;;
7166;SDS011;3625;51.762;14.320;2023-09-12T02:01:59;14.00;;;12.57;;
7166;SDS011;3625;51.762;14.320;2023-09-12T02:04:28;14.27;;;12.90;;
7166;SDS011;3625;51.762;14.320;2023-09-12T02:06:57;13.55;;;12.35;;
7166;SDS011;3625;51.762;14.320;2023-09-12T02:09:26;13.00;;;11.57;;
7166;SDS011;3625;51.762;14.320;2023-09-12T02:11:57;14.20;;;12.60;;
7166;SDS011;3625;51.762;14.320;2023-09-12T02:14:26;13.45;;;12.15;;
7166;SDS011;3625;51.762;14.320;2023-09-12T02:16:56;13.88;;;12.48;;
7166;SDS011;3625;51.762;14.320;2023-09-12T02:19:25;14.18;;;12.75;;
7166;SDS011;3625;51.762;14.320;2023-09-12T02:21:54;13.77;;;12.43;;
7166;SDS011;3625;51.762;14.320;2023-09-12T02:24:23;14.60;;;13.00;;
7166;SDS011;3625;51.762;14.320;2023-09-12T02:26:54;13.23;;;11.82;;
7166;SDS011;3625;51.762;14.320;2023-09-12T02:29:23;13.85;;;11.52;;
7166;SDS011;3625;51.762;14.320;2023-09-12T02:31:54;13.27;;;12.07;;
7166;SDS011;3625;51.762;14.320;2023-09-12T02:34:24;13.27;;;11.98;;
7166;SDS011;3625;51.762;14.320;2023-09-12T02:36:53;11.93;;;10.77;;
7166;SDS011;3625;51.762;14.320;2023-09-12T02:39:21;12.50;;;11.30;;
7166;SDS011;3625;51.762;14.320;2023-09-12T02:41:50;11.50;;;10.52;;
7166;SDS011;3625;51.762;14.320;2023-09-12T02:44:19;11.85;;;10.75;;
7166;SDS011;3625;51.762;14.320;2023-09-12T02:46:48;12.63;;;11.48;;
7166;SDS011;3625;51.762;14.320;2023-09-12T02:49:19;12.70;;;11.40;;
7166;SDS011;3625;51.762;14.320;2023-09-12T02:51:47;12.27;;;10.98;;
7166;SDS011;3625;51.762;14.320;2023-09-12T02:54:16;12.45;;;11.15;;
7166;SDS011;3625;51.762;14.320;2023-09-12T02:56:45;11.95;;;10.50;;
7166;SDS011;3625;51.762;14.320;2023-09-12T02:59:14;12.38;;;11.05;;
7166;SDS011;3625;51.762;14.320;2023-09-12T03:01:42;12.63;;;11.43;;
7166;SDS011;3625;51.762;14.320;2023-09-12T03:04:11;13.88;;;12.50;;
7166;SDS011;3625;51.762;14.320;2023-09-12T03:06:41;12.70;;;11.40;;
7166;SDS011;3625;51.762;14.320;2023-09-12T03:09:10;13.00;;;11.38;;
7166;SDS011;3625;51.762;14.320;2023-09-12T03:11:39;11.80;;;10.68;;
7166;SDS011;3625;51.762;14.320;2023-09-12T03:14:08;12.88;;;11.68;;
7166;SDS011;3625;51.762;14.320;2023-09-12T03:16:36;12.48;;;11.38;;
7166;SDS011;3625;51.762;14.320;2023-09-12T03:19:06;12.52;;;11.23;;
7166;SDS011;3625;51.762;14.320;2023-09-12T03:21:35;12.93;;;11.30;;
7166;SDS011;3625;51.762;14.320;2023-09-12T03:24:07;13.10;;;11.80;;
7166;SDS011;3625;51.762;14.320;2023-09-12T03:26:36;12.32;;;10.57;;
7166;SDS011;3625;51.762;14.320;2023-09-12T03:29:15;12.18;;;10.95;;
7166;SDS011;3625;51.762;14.320;2023-09-12T03:31:46;14.15;;;11.60;;
7166;SDS011;3625;51.762;14.320;2023-09-12T03:34:15;14.00;;;12.50;;
7166;SDS011;3625;51.762;14.320;2023-09-12T03:36:44;12.15;;;10.90;;
7166;SDS011;3625;51.762;14.320;2023-09-12T03:39:14;14.35;;;12.88;;
7166;SDS011;3625;51.762;14.320;2023-09-12T03:41:44;13.63;;;12.23;;
7166;SDS011;3625;51.762;14.320;2023-09-12T03:44:13;13.93;;;12.13;;
7166;SDS011;3625;51.762;14.320;2023-09-12T03:46:42;14.00;;;12.57;;
7166;SDS011;3625;51.762;14.320;2023-09-12T03:49:17;13.23;;;11.48;;
7166;SDS011;3625;51.762;14.320;2023-09-12T03:51:46;14.45;;;12.93;;
7166;SDS011;3625;51.762;14.320;2023-09-12T03:54:19;13.18;;;11.85;;
7166;SDS011;3625;51.762;14.320;2023-09-12T03:56:53;14.30;;;12.90;;
7166;SDS011;3625;51.762;14.320;2023-09-12T03:59:22;14.35;;;12.85;;
7166;SDS011;3625;51.762;14.320;2023-09-12T04:01:51;13.80;;;12.40;;
7166;SDS011;3625;51.762;14.320;2023-09-12T04:04:20;14.23;;;12.30;;
7166;SDS011;3625;51.762;14.320;2023-09-12T04:06:49;14.35;;;12.70;;
7166;SDS011;3625;51.762;14.320;2023-09-12T04:09:19;13.82;;;11.70;;
7166;SDS011;3625;51.762;14.320;2023-09-12T04:11:48;12.80;;;11.48;;
7166;SDS011;3625;51.762;14.320;2023-09-12T04:14:22;14.30;;;12.75;;
7166;SDS011;3625;51.762;14.320;2023-09-12T04:16:50;14.07;;;12.65;;
7166;SDS011;3625;51.762;14.320;2023-09-12T04:19:19;15.50;;;12.82;;
7166;SDS011;3625;51.762;14.320;2023-09-12T04:21:48;15.43;;;13.07;;
7166;SDS011;3625;51.762;14.320;2023-09-12T04:24:17;16.42;;;14.75;;
7166;SDS011;3625;51.762;14.320;2023-09-12T04:26:47;15.52;;;13.65;;
7166;SDS011;3625;51.762;14.320;2023-09-12T04:29:16;16.92;;;14.23;;
7166;SDS011;3625;51.762;14.320;2023-09-12T04:31:45;17.00;;;15.30;;
7166;SDS011;3625;51.762;14.320;2023-09-12T04:34:14;17.75;;;15.95;;
7166;SDS011;3625;51.762;14.320;2023-09-12T04:36:43;16.55;;;14.18;;
7166;SDS011;3625;51.762;14.320;2023-09-12T04:39:12;17.27;;;15.30;;
7166;SDS011;3625;51.762;14.320;2023-09-12T04:41:44;20.15;;;14.90;;
7166;SDS011;3625;51.762;14.320;2023-09-12T04:44:15;20.42;;;17.13;;
7166;SDS011;3625;51.762;14.320;2023-09-12T04:46:44;21.98;;;17.55;;
7166;SDS011;3625;51.762;14.320;2023-09-12T04:49:13;18.02;;;15.98;;
7166;SDS011;3625;51.762;14.320;2023-09-12T04:51:49;23.73;;;16.52;;
7166;SDS011;3625;51.762;14.320;2023-09-12T04:54:20;20.13;;;16.88;;
7166;SDS011;3625;51.762;14.320;2023-09-12T04:56:50;17.00;;;15.15;;
7166;SDS011;3625;51.762;14.320;2023-09-12T04:59:19;19.38;;;15.07;;
7166;SDS011;3625;51.762;14.320;2023-09-12T05:01:48;17.98;;;15.85;;
7166;SDS011;3625;51.762;14.320;2023-09-12T05:04:19;17.42;;;15.55;;
7166;SDS011;3625;51.762;14.320;2023-09-12T05:06:50;19.63;;;15.45;;
7166;SDS011;3625;51.762;14.320;2023-09-12T05:09:20;17.77;;;14.75;;
7166;SDS011;3625;51.762;14.320;2023-09-12T05:11:53;17.20;;;15.18;;
7166;SDS011;3625;51.762;14.320;2023-09-12T05:14:21;18.30;;;16.05;;
7166;SDS011;3625;51.762;14.320;2023-09-12T05:16:57;16.52;;;14.68;;
7166;SDS011;3625;51.762;14.320;2023-09-12T05:19:29;18.45;;;14.80;;
7166;SDS011;3625;51.762;14.320;2023-09-12T05:22:01;19.42;;;16.05;;
7166;SDS011;3625;51.762;14.320;2023-09-12T05:24:30;16.92;;;15.13;;
7166;SDS011;3625;51.762;14.320;2023-09-12T05:27:00;19.83;;;14.80;;
7166;SDS011;3625;51.762;14.320;2023-09-12T05:29:30;16.05;;;14.00;;
7166;SDS011;3625;51.762;14.320;2023-09-12T05:32:03;20.92;;;13.65;;
7166;SDS011;3625;51.762;14.320;2023-09-12T05:34:33;16.55;;;13.52;;
7166;SDS011;3625;51.762;14.320;2023-09-12T05:37:02;19.88;;;14.93;;
7166;SDS011;3625;51.762;14.320;2023-09-12T05:39:31;15.52;;;13.85;;
7166;SDS011;3625;51.762;14.320;2023-09-12T05:42:02;19.92;;;14.38;;
7166;SDS011;3625;51.762;14.320;2023-09-12T05:44:32;17.65;;;13.80;;
7166;SDS011;3625;51.762;14.320;2023-09-12T05:47:01;18.80;;;13.63;;
7166;SDS011;3625;51.762;14.320;2023-09-12T05:49:30;16.45;;;14.70;;
7166;SDS011;3625;51.762;14.320;2023-09-12T05:52:00;15.88;;;13.98;;
7166;SDS011;3625;51.762;14.320;2023-09-12T05:54:34;21.50;;;14.25;;
7166;SDS011;3625;51.762;14.320;2023-09-12T05:57:07;15.95;;;14.30;;
7166;SDS011;3625;51.762;14.320;2023-09-12T05:59:37;16.38;;;13.98;;
7166;SDS011;3625;51.762;14.320;2023-09-12T06:02:07;16.00;;;14.30;;
7166;SDS011;3625;51.762;14.320;2023-09-12T06:04:37;19.63;;;15.18;;
7166;SDS011;3625;51.762;14.320;2023-09-12T06:07:05;18.65;;;15.13;;
7166;SDS011;3625;51.762;14.320;2023-09-12T06:09:35;17.98;;;14.80;;
7166;SDS011;3625;51.762;14.320;2023-09-12T06:12:04;17.50;;;15.70;;
7166;SDS011;3625;51.762;14.320;2023-09-12T06:14:35;22.17;;;15.25;;
7166;SDS011;3625;51.762;14.320;2023-09-12T06:17:05;15.88;;;13.90;;
7166;SDS011;3625;51.762;14.320;2023-09-12T06:19:34;15.52;;;13.45;;
7166;SDS011;3625;51.762;14.320;2023-09-12T06:22:03;17.90;;;14.88;;
7166;SDS011;3625;51.762;14.320;2023-09-12T06:24:32;17.58;;;14.93;;
7166;SDS011;3625;51.762;14.320;2023-09-12T06:27:01;18.05;;;15.48;;
7166;SDS011;3625;51.762;14.320;2023-09-12T06:29:30;14.38;;;12.95;;
7166;SDS011;3625;51.762;14.320;2023-09-12T06:31:59;16.83;;;13.13;;
7166;SDS011;3625;51.762;14.320;2023-09-12T06:34:28;17.00;;;13.77;;
7166;SDS011;3625;51.762;14.320;2023-09-12T06:36:59;16.08;;;12.25;;
7166;SDS011;3625;51.762;14.320;2023-09-12T06:39:28;16.52;;;14.05;;
7166;SDS011;3625;51.762;14.320;2023-09-12T06:41:56;15.80;;;14.20;;
7166;SDS011;3625;51.762;14.320;2023-09-12T06:44:25;15.68;;;14.05;;
7166;SDS011;3625;51.762;14.320;2023-09-12T06:46:55;14.10;;;12.63;;
7166;SDS011;3625;51.762;14.320;2023-09-12T06:49:25;15.15;;;13.40;;
7166;SDS011;3625;51.762;14.320;2023-09-12T06:51:54;16.85;;;13.48;;
7166;SDS011;3625;51.762;14.320;2023-09-12T06:54:22;16.33;;;14.20;;
7166;SDS011;3625;51.762;14.320;2023-09-12T06:56:51;15.02;;;13.52;;
7166;SDS011;3625;51.762;14.320;2023-09-12T06:59:19;13.55;;;12.23;;
7166;SDS011;3625;51.762;14.320;2023-09-12T07:01:48;14.80;;;12.27;;
7166;SDS011;3625;51.762;14.320;2023-09-12T07:04:18;14.15;;;12.65;;
7166;SDS011;3625;51.762;14.320;2023-09-12T07:06:47;14.05;;;12.63;;
7166;SDS011;3625;51.762;14.320;2023-09-12T07:09:16;13.98;;;12.30;;
7166;SDS011;3625;51.762;14.320;2023-09-12T07:11:46;13.07;;;11.68;;
7166;SDS011;3625;51.762;14.320;2023-09-12T07:14:17;12.77;;;11.30;;
7166;SDS011;3625;51.762;14.320;2023-09-12T07:16:48;13.05;;;11.45;;
7166;SDS011;3625;51.762;14.320;2023-09-12T07:19:18;13.07;;;11.70;;
7166;SDS011;3625;51.762;14.320;2023-09-12T07:21:47;12.52;;;10.98;;
7166;SDS011;3625;51.762;14.320;2023-09-12T07:24:16;12.57;;;11.35;;
7166;SDS011;3625;51.762;14.320;2023-09-12T07:26:44;11.68;;;10.55;;
7166;SDS011;3625;51.762;14.320;2023-09-12T07:29:13;10.60;;;9.63;;
7166;SDS011;3625;51.762;14.320;2023-09-12T07:31:42;12.05;;;10.95;;
7166;SDS011;3625;51.762;14.320;2023-09-12T07:34:13;12.32;;;10.77;;
7166;SDS011;3625;51.762;14.320;2023-09-12T07:36:43;12.48;;;10.65;;
7166;SDS011;3625;51.762;14.320;2023-09-12T07:39:11;11.80;;;10.70;;
7166;SDS011;3625;51.762;14.320;2023-09-12T07:41:40;11.98;;;10.88;;
7166;SDS011;3625;51.762;14.320;2023-09-12T07:44:08;14.30;;;11.20;;
7166;SDS011;3625;51.762;14.320;2023-09-12T07:46:37;12.32;;;10.57;;
7166;SDS011;3625;51.762;14.320;2023-09-12T07:49:08;11.18;;;10.07;;
7166;SDS011;3625;51.762;14.320;2023-09-12T07:51:39;11.20;;;9.95;;
7166;SDS011;3625;51.762;14.320;2023-09-12T07:54:09;12.13;;;10.63;;
7166;SDS011;3625;51.762;14.320;2023-09-12T07:56:38;10.65;;;9.65;;
7166;SDS011;3625;51.762;14.320;2023-09-12T07:59:06;11.27;;;10.18;;
7166;SDS011;3625;51.762;14.320;2023-09-12T08:01:36;10.25;;;9.32;;
7166;SDS011;3625;51.762;14.320;2023-09-12T08:04:05;10.18;;;9.27;;
7166;SDS011;3625;51.762;14.320;2023-09-12T08:06:33;10.63;;;9.52;;
7166;SDS011;3625;51.762;14.320;2023-09-12T08:09:23;10.32;;;9.43;;
7166;SDS011;3625;51.762;14.320;2023-09-12T08:12:17;9.98;;;8.98;;
7166;SDS011;3625;51.762;14.320;2023-09-12T08:14:47;11.07;;;10.07;;
7166;SDS011;3625;51.762;14.320;2023-09-12T08:17:16;11.20;;;9.80;;
7166;SDS011;3625;51.762;14.320;2023-09-12T08:19:44;11.32;;;9.27;;
7166;SDS011;3625;51.762;14.320;2023-09-12T08:22:13;11.48;;;10.02;;
7166;SDS011;3625;51.762;14.320;2023-09-12T08:24:43;10.77;;;9.68;;
7166;SDS011;3625;51.762;14.320;2023-09-12T08:27:12;9.98;;;9.05;;
7166;SDS011;3625;51.762;14.320;2023-09-12T08:29:40;10.50;;;9.50;;
7166;SDS011;3625;51.762;14.320;2023-09-12T08:32:11;10.82;;;8.80;;
7166;SDS011;3625;51.762;14.320;2023-09-12T08:34:40;12.40;;;9.68;;
7166;SDS011;3625;51.762;14.320;2023-09-12T08:37:08;11.02;;;9.80;;
7166;SDS011;3625;51.762;14.320;2023-09-12T08:39:40;9.45;;;8.65;;
7166;SDS011;3625;51.762;14.320;2023-09-12T08:42:13;10.07;;;9.07;;
7166;SDS011;3625;51.762;14.320;2023-09-12T08:44:42;10.65;;;8.65;;
7166;SDS011;3625;51.762;14.320;2023-09-12T08:47:14;9.60;;;8.60;;
7166;SDS011;3625;51.762;14.320;2023-09-12T08:49:47;10.52;;;9.20;;
7166;SDS011;3625;51.762;14.320;2023-09-12T08:52:16;10.10;;;9.10;;
7166;SDS011;3625;51.762;14.320;2023-09-12T08:54:44;10.15;;;8.23;;
7166;SDS011;3625;51.762;14.320;2023-09-12T08:57:15;9.32;;;8.45;;
7166;SDS011;3625;51.762;14.320;2023-09-12T08:59:44;8.82;;;8.00;;
7166;SDS011;3625;51.762;14.320;2023-09-12T09:02:14;10.38;;;8.98;;
7166;SDS011;3625;51.762;14.320;2023-09-12T09:04:44;9.13;;;8.23;;
7166;SDS011;3625;51.762;14.320;2023-09-12T09:07:18;8.07;;;7.38;;
7166;SDS011;3625;51.762;14.320;2023-09-12T09:09:49;8.90;;;8.00;;
7166;SDS011;3625;51.762;14.320;2023-09-12T09:12:21;9.63;;;8.02;;
7166;SDS011;3625;51.762;14.320;2023-09-12T09:14:50;9.00;;;8.13;;
7166;SDS011;3625;51.762;14.320;2023-09-12T09:17:19;9.73;;;8.73;;
7166;SDS011;3625;51.762;14.320;2023-09-12T09:20:00;9.20;;;8.18;;
7166;SDS011;3625;51.762;14.320;2023-09-12T09:22:30;9.35;;;8.35;;
7166;SDS011;3625;51.762;14.320;2023-09-12T09:25:09;9.63;;;8.63;;
7166;SDS011;3625;51.762;14.320;2023-09-12T09:27:41;8.07;;;7.35;;
7166;SDS011;3625;51.762;14.320;2023-09-12T09:30:10;8.85;;;8.05;;
7166;SDS011;3625;51.762;14.320;2023-09-12T09:32:40;8.60;;;7.47;;
7166;SDS011;3625;51.762;14.320;2023-09-12T09:35:09;8.50;;;7.72;;
7166;SDS011;3625;51.762;14.320;2023-09-12T09:37:38;8.48;;;7.40;;
7166;SDS011;3625;51.762;14.320;2023-09-12T09:40:07;8.75;;;7.55;;
7166;SDS011;3625;51.762;14.320;2023-09-12T09:42:37;8.85;;;6.97;;
7166;SDS011;3625;51.762;14.320;2023-09-12T09:45:08;7.80;;;7.15;;
7166;SDS011;3625;51.762;14.320;2023-09-12T09:47:37;19.77;;;17.15;;
7166;SDS011;3625;51.762;14.320;2023-09-12T09:50:06;10.15;;;8.02;;
7166;SDS011;3625;51.762;14.320;2023-09-12T09:52:35;7.80;;;7.00;;
7166;SDS011;3625;51.762;14.320;2023-09-12T09:55:05;7.53;;;6.75;;
7166;SDS011;3625;51.762;14.320;2023-09-12T09:57:36;7.45;;;6.70;;
7166;SDS011;3625;51.762;14.320;2023-09-12T10:00:08;9.38;;;6.82;;
7166;SDS011;3625;51.762;14.320;2023-09-12T10:02:41;7.85;;;7.05;;
7166;SDS011;3625;51.762;14.320;2023-09-12T10:05:13;8.35;;;7.55;;
7166;SDS011;3625;51.762;14.320;2023-09-12T10:07:44;6.97;;;6.35;;
7166;SDS011;3625;51.762;14.320;2023-09-12T10:10:17;7.45;;;6.75;;
7166;SDS011;3625;51.762;14.320;2023-09-12T10:12:48;7.00;;;6.40;;
7166;SDS011;3625;51.762;14.320;2023-09-12T10:15:25;7.57;;;6.82;;
7166;SDS011;3625;51.762;14.320;2023-09-12T10:17:59;6.57;;;6.05;;
7166;SDS011;3625;51.762;14.320;2023-09-12T10:20:45;7.03;;;6.28;;
7166;SDS011;3625;51.762;14.320;2023-09-12T10:23:22;7.30;;;6.55;;
7166;SDS011;3625;51.762;14.320;2023-09-12T10:26:00;8.50;;;6.63;;
7166;SDS011;3625;51.762;14.320;2023-09-12T10:28:30;6.60;;;6.00;;
7166;SDS011;3625;51.762;14.320;2023-09-12T10:31:01;7.13;;;6.47;;
7166;SDS011;3625;51.762;14.320;2023-09-12T10:33:32;6.95;;;6.30;;
7166;SDS011;3625;51.762;14.320;2023-09-12T10:36:02;6.55;;;5.95;;
7166;SDS011;3625;51.762;14.320;2023-09-12T10:38:32;6.15;;;5.55;;
7166;SDS011;3625;51.762;14.320;2023-09-12T10:41:07;6.90;;;6.28;;
7166;SDS011;3625;51.762;14.320;2023-09-12T10:43:41;7.40;;;6.57;;
7166;SDS011;3625;51.762;14.320;2023-09-12T10:46:14;6.88;;;6.28;;
7166;SDS011;3625;51.762;14.320;2023-09-12T10:48:43;6.47;;;5.72;;
7166;SDS011;3625;51.762;14.320;2023-09-12T10:51:12;8.93;;;6.97;;
7166;SDS011;3625;51.762;14.320;2023-09-12T10:53:46;6.57;;;5.97;;
7166;SDS011;3625;51.762;14.320;2023-09-12T10:56:20;7.53;;;6.93;;
7166;SDS011;3625;51.762;14.320;2023-09-12T10:59:08;8.45;;;7.13;;
7166;SDS011;3625;51.762;14.320;2023-09-12T11:01:41;7.18;;;6.32;;
7166;SDS011;3625;51.762;14.320;2023-09-12T11:04:33;7.45;;;6.45;;
7166;SDS011;3625;51.762;14.320;2023-09-12T11:10:17;10.20;;;6.15;;
7166;SDS011;3625;51.762;14.320;2023-09-12T11:12:49;6.40;;;5.80;;
7166;SDS011;3625;51.762;14.320;2023-09-12T11:15:19;5.97;;;5.47;;
7166;SDS011;3625;51.762;14.320;2023-09-12T11:18:00;7.50;;;6.30;;
7166;SDS011;3625;51.762;14.320;2023-09-12T11:20:51;6.38;;;5.78;;
7166;SDS011;3625;51.762;14.320;2023-09-12T11:23:28;7.93;;;6.75;;
7166;SDS011;3625;51.762;14.320;2023-09-12T11:26:04;7.72;;;6.07;;
7166;SDS011;3625;51.762;14.320;2023-09-12T11:28:34;6.65;;;6.05;;
7166;SDS011;3625;51.762;14.320;2023-09-12T11:31:03;7.60;;;6.78;;
7166;SDS011;3625;51.762;14.320;2023-09-12T11:33:35;6.40;;;5.85;;
7166;SDS011;3625;51.762;14.320;2023-09-12T11:36:07;6.80;;;5.97;;
7166;SDS011;3625;51.762;14.320;2023-09-12T11:38:41;6.55;;;5.55;;
7166;SDS011;3625;51.762;14.320;2023-09-12T11:41:10;6.15;;;5.55;;
7166;SDS011;3625;51.762;14.320;2023-09-12T11:43:38;7.53;;;6.40;;
7166;SDS011;3625;51.762;14.320;2023-09-12T11:46:08;7.70;;;6.10;;
7166;SDS011;3625;51.762;14.320;2023-09-12T11:48:38;7.20;;;5.95;;
7166;SDS011;3625;51.762;14.320;2023-09-12T11:51:07;6.93;;;6.20;;
7166;SDS011;3625;51.762;14.320;2023-09-12T11:53:36;8.40;;;6.57;;
7166;SDS011;3625;51.762;14.320;2023-09-12T11:56:05;6.82;;;6.22;;
7166;SDS011;3625;51.762;14.320;2023-09-12T11:58:34;6.50;;;5.88;;
7166;SDS011;3625;51.762;14.320;2023-09-12T12:01:04;7.47;;;6.63;;
7166;SDS011;3625;51.762;14.320;2023-09-12T12:03:32;7.43;;;6.55;;
7166;SDS011;3625;51.762;14.320;2023-09-12T12:06:03;7.05;;;6.45;;
7166;SDS011;3625;51.762;14.320;2023-09-12T12:08:33;7.57;;;5.88;;
7166;SDS011;3625;51.762;14.320;2023-09-12T12:11:03;6.40;;;5.70;;
7166;SDS011;3625;51.762;14.320;2023-09-12T12:13:33;7.00;;;5.82;;
7166;SDS011;3625;51.762;14.320;2023-09-12T12:16:13;7.88;;;5.80;;
7166;SDS011;3625;51.762;14.320;2023-09-12T12:18:43;8.85;;;6.05;;
7166;SDS011;3625;51.762;14.320;2023-09-12T12:21:14;6.95;;;5.63;;
7166;SDS011;3625;51.762;14.320;2023-09-12T12:23:42;7.53;;;6.07;;
7166;SDS011;3625;51.762;14.320;2023-09-12T12:26:11;9.50;;;5.82;;
7166;SDS011;3625;51.762;14.320;2023-09-12T12:28:40;6.63;;;6.03;;
7166;SDS011;3625;51.762;14.320;2023-09-12T12:31:09;8.38;;;5.90;;
7166;SDS011;3625;51.762;14.320;2023-09-12T12:33:38;6.32;;;5.60;;
7166;SDS011;3625;51.762;14.320;2023-09-12T12:36:28;8.15;;;6.40;;
7166;SDS011;3625;51.762;14.320;2023-09-12T12:38:59;6.60;;;6.00;;
7166;SDS011;3625;51.762;14.320;2023-09-12T12:41:29;7.25;;;5.55;;
7166;SDS011;3625;51.762;14.320;2023-09-12T12:44:12;7.75;;;6.93;;
7166;SDS011;3625;51.762;14.320;2023-09-12T12:46:47;7.13;;;6.43;;
7166;SDS011;3625;51.762;14.320;2023-09-12T12:49:17;7.68;;;6.70;;
7166;SDS011;3625;51.762;14.320;2023-09-12T12:51:48;7.15;;;6.45;;
7166;SDS011;3625;51.762;14.320;2023-09-12T12:54:17;6.32;;;5.72;;
7166;SDS011;3625;51.762;14.320;2023-09-12T12:56:50;6.88;;;6.25;;
7166;SDS011;3625;51.762;14.320;2023-09-12T12:59:19;6.70;;;6.00;;
7166;SDS011;3625;51.762;14.320;2023-09-12T13:01:48;9.73;;;6.78;;
7166;SDS011;3625;51.762;14.320;2023-09-12T13:04:18;6.93;;;6.20;;
7166;SDS011;3625;51.762;14.320;2023-09-12T13:06:51;8.95;;;6.00;;
7166;SDS011;3625;51.762;14.320;2023-09-12T13:09:20;6.25;;;5.65;;
7166;SDS011;3625;51.762;14.320;2023-09-12T13:11:48;7.00;;;6.40;;
7166;SDS011;3625;51.762;14.320;2023-09-12T13:14:17;8.30;;;6.22;;
7166;SDS011;3625;51.762;14.320;2023-09-12T13:16:47;7.88;;;6.60;;
7166;SDS011;3625;51.762;14.320;2023-09-12T13:19:16;8.20;;;5.82;;
7166;SDS011;3625;51.762;14.320;2023-09-12T13:21:44;6.40;;;5.80;;
7166;SDS011;3625;51.762;14.320;2023-09-12T13:24:14;6.53;;;5.85;;
7166;SDS011;3625;51.762;14.320;2023-09-12T13:26:43;6.57;;;5.97;;
7166;SDS011;3625;51.762;14.320;2023-09-12T13:29:11;6.70;;;6.00;;
7166;SDS011;3625;51.762;14.320;2023-09-12T13:31:40;6.32;;;5.38;;
7166;SDS011;3625;51.762;14.320;2023-09-12T13:34:09;6.50;;;5.90;;
7166;SDS011;3625;51.762;14.320;2023-09-12T13:36:38;6.25;;;5.65;;
7166;SDS011;3625;51.762;14.320;2023-09-12T13:39:06;6.38;;;5.47;;
7166;SDS011;3625;51.762;14.320;2023-09-12T13:41:36;7.47;;;6.05;;
7166;SDS011;3625;51.762;14.320;2023-09-12T13:44:06;6.30;;;5.70;;
7166;SDS011;3625;51.762;14.320;2023-09-12T13:46:35;6.28;;;5.68;;
7166;SDS011;3625;51.762;14.320;2023-09-12T13:49:03;6.50;;;5.93;;
7166;SDS011;3625;51.762;14.320;2023-09-12T13:51:32;6.15;;;5.65;;
7166;SDS011;3625;51.762;14.320;2023-09-12T13:54:00;7.38;;;6.00;;
7166;SDS011;3625;51.762;14.320;2023-09-12T13:56:29;6.65;;;5.97;;
7166;SDS011;3625;51.762;14.320;2023-09-12T13:58:59;7.10;;;6.25;;
7166;SDS011;3625;51.762;14.320;2023-09-12T14:01:32;5.80;;;5.30;;
7166;SDS011;3625;51.762;14.320;2023-09-12T14:04:01;6.10;;;5.60;;
7166;SDS011;3625;51.762;14.320;2023-09-12T14:06:32;9.85;;;6.22;;
7166;SDS011;3625;51.762;14.320;2023-09-12T14:09:03;6.22;;;5.38;;
7166;SDS011;3625;51.762;14.320;2023-09-12T14:11:33;5.85;;;5.35;;
7166;SDS011;3625;51.762;14.320;2023-09-12T14:14:04;7.07;;;6.10;;
7166;SDS011;3625;51.762;14.320;2023-09-12T14:16:42;6.38;;;5.78;;
7166;SDS011;3625;51.762;14.320;2023-09-12T14:19:15;6.38;;;5.70;;
7166;SDS011;3625;51.762;14.320;2023-09-12T14:21:44;6.63;;;5.93;;
7166;SDS011;3625;51.762;14.320;2023-09-12T14:24:15;6.45;;;5.85;;
7166;SDS011;3625;51.762;14.320;2023-09-12T14:26:46;6.10;;;5.60;;
7166;SDS011;3625;51.762;14.320;2023-09-12T14:29:19;8.80;;;6.05;;
7166;SDS011;3625;51.762;14.320;2023-09-12T14:31:48;6.30;;;5.80;;
7166;SDS011;3625;51.762;14.320;2023-09-12T14:34:24;6.40;;;5.80;;
7166;SDS011;3625;51.762;14.320;2023-09-12T14:36:53;6.03;;;5.43;;
7166;SDS011;3625;51.762;14.320;2023-09-12T14:39:23;6.43;;;5.82;;
7166;SDS011;3625;51.762;14.320;2023-09-12T14:41:52;6.30;;;5.70;;
7166;SDS011;3625;51.762;14.320;2023-09-12T14:44:22;6.50;;;5.82;;
7166;SDS011;3625;51.762;14.320;2023-09-12T14:46:51;7.30;;;5.63;;
7166;SDS011;3625;51.762;14.320;2023-09-12T14:49:20;7.15;;;5.43;;
7166;SDS011;3625;51.762;14.320;2023-09-12T14:51:48;7.30;;;6.20;;
7166;SDS011;3625;51.762;14.320;2023-09-12T14:54:17;6.00;;;5.40;;
7166;SDS011;3625;51.762;14.320;2023-09-12T14:56:45;7.00;;;5.70;;
7166;SDS011;3625;51.762;14.320;2023-09-12T14:59:14;6.18;;;5.57;;
7166;SDS011;3625;51.762;14.320;2023-09-12T15:01:45;6.55;;;5.85;;
7166;SDS011;3625;51.762;14.320;2023-09-12T15:04:14;6.45;;;5.82;;
7166;SDS011;3625;51.762;14.320;2023-09-12T15:06:43;6.63;;;5.72;;
7166;SDS011;3625;51.762;14.320;2023-09-12T15:09:12;6.75;;;6.03;;